Time;durP1;ratioP1;P1;durP2;ratioP2;P2;SDS_P1;SDS_P2;PMS_P1;PMS_P2;Temp;Humidity;BMP_temperature;BMP_pressure;BME280_temperature;BME280_humidity;BME280_pressure;Samples;Min_cycle;Max_cycle;Signal;HPM_P1;HPM_P2
2022/03/14 00:00:35;;;;;;;0.10;0.10;;;;;;;;;;5068856;28;20423;-58
2022/03/14 00:03:02;;;;;;;0.10;0.10;;;;;;;;;;5072252;28;20046;-60
2022/03/14 00:05:31;;;;;;;0.10;0.10;;;;;;;;;;5054856;28;20079;-59
2022/03/14 00:08:01;;;;;;;0.10;0.10;;;;;;;;;;5037906;28;20036;-59
2022/03/14 00:10:28;;;;;;;;;;;;;;;;;;5054910;28;20388;-60
2022/03/14 00:12:58;;;;;;;0.85;0.85;;;;;;;;;;5072194;28;19947;-59
2022/03/14 00:15:29;;;;;;;0.10;0.10;;;;;;;;;;5037735;28;20131;-59
2022/03/14 00:17:56;;;;;;;1.63;1.52;;;;;;;;;;5054347;28;20436;-59
2022/03/14 00:20:22;;;;;;;1.00;1.00;;;;;;;;;;5037829;28;20040;-59
2022/03/14 00:22:48;;;;;;;0.10;0.10;;;;;;;;;;5054246;28;20044;-59
2022/03/14 00:25:14;;;;;;;0.10;0.10;;;;;;;;;;5054179;28;20030;-59
2022/03/14 00:27:40;;;;;;;0.10;0.10;;;;;;;;;;5054293;28;20037;-59
2022/03/14 00:30:12;;;;;;;0.10;0.10;;;;;;;;;;5054224;28;20496;-61
2022/03/14 00:32:39;;;;;;;0.20;0.20;;;;;;;;;;5072141;28;20566;-60
2022/03/14 00:35:06;;;;;;;0.10;0.10;;;;;;;;;;5037485;28;20032;-60
2022/03/14 00:37:32;;;;;;;0.10;0.10;;;;;;;;;;5037471;28;20388;-60
2022/03/14 00:39:57;;;;;;;0.10;0.10;;;;;;;;;;5054044;28;20043;-60
2022/03/14 00:42:23;;;;;;;0.10;0.10;;;;;;;;;;5072023;28;20376;-60
2022/03/14 00:44:52;;;;;;;0.10;0.10;;;;;;;;;;5053655;28;20056;-60
2022/03/14 00:47:19;;;;;;;0.10;0.10;;;;;;;;;;5037608;28;20037;-60
2022/03/14 00:49:45;;;;;;;0.10;0.10;;;;;;;;;;5037655;28;20027;-60
2022/03/14 00:52:11;;;;;;;0.10;0.10;;;;;;;;;;5053808;28;20058;-60
2022/03/14 00:54:37;;;;;;;0.10;0.10;;;;;;;;;;5054898;28;20032;-60
2022/03/14 00:57:02;;;;;;;0.10;0.10;;;;;;;;;;5040673;28;20404;-60
2022/03/14 00:59:28;;;;;;;0.10;0.10;;;;;;;;;;5075092;28;20035;-61
2022/03/14 01:01:54;;;;;;;0.10;0.10;;;;;;;;;;5040758;28;20032;-60
2022/03/14 01:04:20;;;;;;;0.10;0.10;;;;;;;;;;5075337;28;20032;-59
2022/03/14 01:06:46;;;;;;;0.10;0.10;;;;;;;;;;5075065;28;20037;-61
2022/03/14 01:09:11;;;;;;;0.10;0.10;;;;;;;;;;5075076;28;20021;-59
2022/03/14 01:11:37;;;;;;;0.10;0.10;;;;;;;;;;5074995;28;20490;-59
2022/03/14 01:14:03;;;;;;;0.10;0.10;;;;;;;;;;5040233;28;20047;-60
2022/03/14 01:16:29;;;;;;;0.15;0.15;;;;;;;;;;5057103;28;20029;-59
2022/03/14 01:18:55;;;;;;;0.10;0.10;;;;;;;;;;5075191;28;20025;-59
2022/03/14 01:21:21;;;;;;;0.10;0.10;;;;;;;;;;5057006;28;20033;-59
2022/03/14 01:23:47;;;;;;;0.10;0.10;;;;;;;;;;5056977;28;20542;-59
2022/03/14 01:26:13;;;;;;;0.10;0.10;;;;;;;;;;5074855;28;20028;-59
2022/03/14 01:28:40;;;;;;;0.10;0.10;;;;;;;;;;5056653;28;20082;-59
2022/03/14 01:31:06;;;;;;;0.10;0.10;;;;;;;;;;5056660;28;20036;-59
2022/03/14 01:33:31;;;;;;;0.38;0.38;;;;;;;;;;5056859;28;20056;-59
2022/03/14 01:35:57;;;;;;;0.10;0.10;;;;;;;;;;5056739;28;20056;-59
2022/03/14 01:38:22;;;;;;;0.10;0.10;;;;;;;;;;5056772;28;20437;-59
2022/03/14 01:40:48;;;;;;;4.22;4.03;;;;;;;;;;5074480;28;20507;-60
2022/03/14 01:43:16;;;;;;;0.10;0.10;;;;;;;;;;5074509;28;20032;-59
2022/03/14 01:45:44;;;;;;;0.10;0.10;;;;;;;;;;5040175;28;20123;-59
2022/03/14 01:48:10;;;;;;;0.10;0.10;;;;;;;;;;5039765;28;20070;-60
2022/03/14 01:50:35;;;;;;;0.10;0.10;;;;;;;;;;5074451;28;20492;-60
2022/03/14 01:53:01;;;;;;;0.10;0.10;;;;;;;;;;5074429;28;20476;-59
2022/03/14 01:55:28;;;;;;;0.73;0.73;;;;;;;;;;5056686;28;20388;-61
2022/03/14 01:57:54;;;;;;;0.15;0.15;;;;;;;;;;5039863;28;20449;-60
2022/03/14 02:00:20;;;;;;;0.10;0.10;;;;;;;;;;5039649;28;20036;-61
2022/03/14 02:02:45;;;;;;;0.10;0.10;;;;;;;;;;5056765;28;20036;-60
2022/03/14 02:05:12;;;;;;;0.10;0.10;;;;;;;;;;5074071;28;20031;-60
2022/03/14 02:07:37;;;;;;;0.10;0.10;;;;;;;;;;5039525;28;20037;-59
2022/03/14 02:10:03;;;;;;;0.10;0.10;;;;;;;;;;5074108;28;20055;-60
2022/03/14 02:12:28;;;;;;;0.10;0.10;;;;;;;;;;5074023;28;20033;-60
2022/03/14 02:14:54;;;;;;;0.10;0.10;;;;;;;;;;5073870;28;20060;-59
2022/03/14 02:17:20;;;;;;;0.10;0.10;;;;;;;;;;5056213;28;20039;-59
2022/03/14 02:19:47;;;;;;;0.10;0.10;;;;;;;;;;5056128;28;20529;-59
2022/03/14 02:22:14;;;;;;;0.10;0.10;;;;;;;;;;5056040;28;20123;-59
2022/03/14 02:24:40;;;;;;;1.17;1.17;;;;;;;;;;5039333;28;20075;-59
2022/03/14 02:27:06;;;;;;;0.10;0.10;;;;;;;;;;5039328;28;20062;-60
2022/03/14 02:29:32;;;;;;;0.10;0.10;;;;;;;;;;5073494;28;20468;-59
2022/03/14 02:31:57;;;;;;;0.10;0.10;;;;;;;;;;5055755;28;20427;-60
2022/03/14 02:34:23;;;;;;;0.10;0.10;;;;;;;;;;5073563;28;20071;-59
2022/03/14 02:36:48;;;;;;;0.10;0.10;;;;;;;;;;5073475;28;20028;-59
2022/03/14 02:39:14;;;;;;;0.10;0.10;;;;;;;;;;5073492;28;20476;-59
2022/03/14 02:41:42;;;;;;;0.13;0.13;;;;;;;;;;5053098;28;20025;-59
2022/03/14 02:44:08;;;;;;;0.10;0.10;;;;;;;;;;5018955;28;20082;-59
2022/03/14 02:46:34;;;;;;;0.10;0.10;;;;;;;;;;5036031;28;20092;-59
2022/03/14 02:49:06;;;;;;;0.10;0.10;;;;;;;;;;5053585;28;20033;-59
2022/03/14 02:51:34;;;;;;;0.10;0.10;;;;;;;;;;5019299;28;20079;-59
2022/03/14 02:54:04;;;;;;;0.10;0.10;;;;;;;;;;5019172;28;20017;-59
2022/03/14 02:56:30;;;;;;;0.10;0.10;;;;;;;;;;5018985;28;20068;-60
2022/03/14 02:58:55;;;;;;;0.10;0.10;;;;;;;;;;5018915;28;20095;-61
2022/03/14 03:01:21;;;;;;;0.10;0.10;;;;;;;;;;5053308;28;20384;-60
2022/03/14 03:03:48;;;;;;;0.10;0.10;;;;;;;;;;5018947;28;20024;-60
2022/03/14 03:06:15;;;;;;;0.10;0.10;;;;;;;;;;5053284;28;20033;-59
2022/03/14 03:08:44;;;;;;;0.10;0.10;;;;;;;;;;5018833;28;20033;-59
2022/03/14 03:11:13;;;;;;;0.10;0.10;;;;;;;;;;5034954;28;20065;-60
2022/03/14 03:13:42;;;;;;;0.10;0.10;;;;;;;;;;5053098;28;20746;-59
2022/03/14 03:16:09;;;;;;;2.72;2.63;;;;;;;;;;5035553;28;20045;-60
2022/03/14 03:18:35;;;;;;;0.40;0.40;;;;;;;;;;5018393;28;20469;-59
2022/03/14 03:21:00;;;;;;;0.10;0.10;;;;;;;;;;5052982;28;20439;-60
2022/03/14 03:23:26;;;;;;;0.10;0.10;;;;;;;;;;5035147;28;20037;-60
2022/03/14 03:25:52;;;;;;;1.55;1.50;;;;;;;;;;5052704;28;20079;-59
2022/03/14 03:28:20;;;;;;;0.85;0.85;;;;;;;;;;5035043;28;20116;-59
2022/03/14 03:30:46;;;;;;;0.10;0.10;;;;;;;;;;5035084;28;20104;-60
2022/03/14 03:33:11;;;;;;;0.60;0.60;;;;;;;;;;5052752;28;20041;-60
2022/03/14 03:35:37;;;;;;;0.10;0.10;;;;;;;;;;5052806;28;20029;-59
2022/03/14 03:38:03;;;;;;;0.10;0.10;;;;;;;;;;5052856;28;20487;-60
2022/03/14 03:40:29;;;;;;;0.85;0.85;;;;;;;;;;5052479;28;20423;-60
2022/03/14 03:42:54;;;;;;;0.10;0.10;;;;;;;;;;5018541;28;20029;-60
2022/03/14 03:45:20;;;;;;;0.10;0.10;;;;;;;;;;5053155;28;20037;-59
2022/03/14 03:47:46;;;;;;;0.10;0.10;;;;;;;;;;5034957;28;20033;-60
2022/03/14 03:50:12;;;;;;;0.10;0.10;;;;;;;;;;5034757;28;20492;-59
2022/03/14 03:52:37;;;;;;;0.40;0.40;;;;;;;;;;5034711;28;20056;-59
2022/03/14 03:55:04;;;;;;;2.50;2.40;;;;;;;;;;5034499;28;20500;-59
2022/03/14 03:57:30;;;;;;;1.15;1.05;;;;;;;;;;5034697;28;20128;-58
2022/03/14 03:59:56;;;;;;;0.22;0.22;;;;;;;;;;5034493;28;20021;-58
2022/03/14 04:02:22;;;;;;;0.10;0.10;;;;;;;;;;5034047;28;20047;-60
2022/03/14 04:04:51;;;;;;;1.08;1.08;;;;;;;;;;5051045;28;20125;-60
2022/03/14 04:07:26;;;;;;;0.10;0.10;;;;;;;;;;5050917;28;20143;-60
2022/03/14 04:09:55;;;;;;;0.10;0.10;;;;;;;;;;5034153;28;20036;-59
2022/03/14 04:12:23;;;;;;;0.15;0.15;;;;;;;;;;5034152;28;20032;-60
2022/03/14 04:14:49;;;;;;;0.10;0.10;;;;;;;;;;5033986;28;20086;-60
2022/03/14 04:17:14;;;;;;;1.08;1.08;;;;;;;;;;5033927;28;20036;-60
2022/03/14 04:19:41;;;;;;;0.10;0.10;;;;;;;;;;5050380;28;20037;-60
2022/03/14 04:22:07;;;;;;;0.10;0.10;;;;;;;;;;5067996;28;20059;-61
2022/03/14 04:24:35;;;;;;;0.20;0.20;;;;;;;;;;5033698;28;20044;-60
2022/03/14 04:27:01;;;;;;;0.10;0.10;;;;;;;;;;5034031;28;20029;-59
2022/03/14 04:29:28;;;;;;;0.10;0.10;;;;;;;;;;5068713;28;20476;-60
2022/03/14 04:31:54;;;;;;;0.10;0.10;;;;;;;;;;5071836;28;20511;-59
2022/03/14 04:34:20;;;;;;;0.10;0.10;;;;;;;;;;5036935;28;20036;-58
2022/03/14 04:36:50;;;;;;;0.70;0.70;;;;;;;;;;5072391;28;20024;-60
2022/03/14 04:39:16;;;;;;;1.85;1.75;;;;;;;;;;5037293;28;20459;-59
2022/03/14 04:41:43;;;;;;;1.45;1.45;;;;;;;;;;5037347;28;20464;-60
2022/03/14 04:44:09;;;;;;;0.10;0.10;;;;;;;;;;5037136;28;20040;-60
2022/03/14 04:46:35;;;;;;;0.10;0.10;;;;;;;;;;5071843;28;20031;-57
2022/03/14 04:49:01;;;;;;;0.10;0.10;;;;;;;;;;5037109;28;20446;-60
2022/03/14 04:51:27;;;;;;;0.10;0.10;;;;;;;;;;5053276;28;20468;-60
2022/03/14 04:53:53;;;;;;;0.10;0.10;;;;;;;;;;5053660;28;20059;-61
2022/03/14 04:56:18;;;;;;;0.10;0.10;;;;;;;;;;5071281;28;20036;-60
2022/03/14 04:58:44;;;;;;;0.10;0.10;;;;;;;;;;5071971;28;20043;-58
2022/03/14 05:01:09;;;;;;;0.10;0.10;;;;;;;;;;5071353;28;20025;-58
2022/03/14 05:03:35;;;;;;;1.40;1.40;;;;;;;;;;5053930;28;20447;-59
2022/03/14 05:06:01;;;;;;;0.10;0.10;;;;;;;;;;5036859;28;20427;-59
2022/03/14 05:08:26;;;;;;;0.10;0.10;;;;;;;;;;5053515;28;20074;-59
2022/03/14 05:10:52;;;;;;;0.10;0.10;;;;;;;;;;5071292;28;20392;-61
2022/03/14 05:13:18;;;;;;;0.10;0.10;;;;;;;;;;5071550;28;20361;-60
2022/03/14 05:15:43;;;;;;;0.10;0.10;;;;;;;;;;5071301;28;20491;-64
2022/03/14 05:18:09;;;;;;;0.17;0.17;;;;;;;;;;5071143;28;20087;-64
2022/03/14 05:20:37;;;;;;;0.15;0.15;;;;;;;;;;5053347;28;20025;-64
2022/03/14 05:23:03;;;;;;;0.10;0.10;;;;;;;;;;5053097;28;20396;-59
2022/03/14 05:25:30;;;;;;;0.10;0.10;;;;;;;;;;5036249;28;20072;-62
2022/03/14 05:27:56;;;;;;;0.10;0.10;;;;;;;;;;5041254;28;20028;-59
2022/03/14 05:30:23;;;;;;;0.10;0.10;;;;;;;;;;5044863;28;20090;-61
2022/03/14 05:32:48;;;;;;;0.10;0.10;;;;;;;;;;5052539;28;20067;-60
2022/03/14 05:35:18;;;;;;;0.10;0.10;;;;;;;;;;5053220;28;20032;-61
2022/03/14 05:37:44;;;;;;;0.10;0.10;;;;;;;;;;5036248;28;20025;-60
2022/03/14 05:40:11;;;;;;;0.20;0.20;;;;;;;;;;5035590;28;20082;-60
2022/03/14 05:42:38;;;;;;;0.10;0.10;;;;;;;;;;5053140;28;20040;-60
2022/03/14 05:45:04;;;;;;;0.20;0.20;;;;;;;;;;5071103;28;20460;-60
2022/03/14 05:47:30;;;;;;;0.10;0.10;;;;;;;;;;5052680;28;20384;-61
2022/03/14 05:49:56;;;;;;;0.10;0.10;;;;;;;;;;5052711;28;20040;-65
2022/03/14 05:52:21;;;;;;;0.10;0.10;;;;;;;;;;5070568;28;20041;-59
2022/03/14 05:54:50;;;;;;;0.13;0.13;;;;;;;;;;5070562;28;20384;-59
2022/03/14 05:57:16;;;;;;;0.10;0.10;;;;;;;;;;5070721;28;20029;-59
2022/03/14 05:59:42;;;;;;;0.10;0.10;;;;;;;;;;5070521;28;20037;-63
2022/03/14 06:02:08;;;;;;;0.10;0.10;;;;;;;;;;5070140;28;20081;-59
2022/03/14 06:04:33;;;;;;;0.10;0.10;;;;;;;;;;5052469;28;20060;-59
2022/03/14 06:06:59;;;;;;;0.10;0.10;;;;;;;;;;5070323;28;20056;-58
2022/03/14 06:09:25;;;;;;;0.10;0.10;;;;;;;;;;5047105;28;20047;-62
2022/03/14 06:11:51;;;;;;;0.10;0.10;;;;;;;;;;5068559;28;20287;-61
2022/03/14 06:14:17;;;;;;;0.10;0.10;;;;;;;;;;5050106;28;20575;-60
2022/03/14 06:16:43;;;;;;;0.10;0.10;;;;;;;;;;5033480;28;20046;-61
2022/03/14 06:19:09;;;;;;;0.20;0.20;;;;;;;;;;5050755;28;20021;-65
2022/03/14 06:21:35;;;;;;;0.50;0.50;;;;;;;;;;5076896;28;20072;-66
2022/03/14 06:24:02;;;;;;;0.15;0.15;;;;;;;;;;5087221;28;20035;-65
2022/03/14 06:26:28;;;;;;;0.10;0.10;;;;;;;;;;5069854;28;20082;-66
2022/03/14 06:28:53;;;;;;;0.10;0.10;;;;;;;;;;5087246;28;20024;-65
2022/03/14 06:31:19;;;;;;;0.10;0.10;;;;;;;;;;5087255;28;20040;-65
2022/03/14 06:33:45;;;;;;;0.13;0.13;;;;;;;;;;5087461;28;20043;-66
2022/03/14 06:36:10;;;;;;;0.10;0.10;;;;;;;;;;5086955;28;20024;-65
2022/03/14 06:38:36;;;;;;;0.10;0.10;;;;;;;;;;5087513;28;20062;-65
2022/03/14 06:41:02;;;;;;;0.20;0.20;;;;;;;;;;5085731;28;20122;-66
2022/03/14 06:43:29;;;;;;;0.10;0.10;;;;;;;;;;5068325;28;20048;-65
2022/03/14 06:45:55;;;;;;;0.10;0.10;;;;;;;;;;5044184;28;20028;-66
2022/03/14 06:48:21;;;;;;;0.10;0.10;;;;;;;;;;5079631;28;20777;-66
2022/03/14 06:50:46;;;;;;;0.10;0.10;;;;;;;;;;5081262;28;20044;-66
2022/03/14 06:53:12;;;;;;;0.10;0.10;;;;;;;;;;5083725;28;20036;-65
2022/03/14 06:55:37;;;;;;;0.10;0.10;;;;;;;;;;5068296;28;20107;-65
2022/03/14 06:58:03;;;;;;;0.10;0.10;;;;;;;;;;5086213;28;20434;-65
2022/03/14 07:00:28;;;;;;;0.10;0.10;;;;;;;;;;5087177;28;20036;-65
2022/03/14 07:02:55;;;;;;;0.10;0.10;;;;;;;;;;5050165;28;20131;-66
2022/03/14 07:05:24;;;;;;;0.10;0.10;;;;;;;;;;5066126;28;20108;-66
2022/03/14 07:07:52;;;;;;;0.20;0.20;;;;;;;;;;5047441;28;20036;-66
2022/03/14 07:10:18;;;;;;;0.10;0.10;;;;;;;;;;5085993;28;20039;-66
2022/03/14 07:12:46;;;;;;;0.13;0.13;;;;;;;;;;5086793;28;20024;-66
2022/03/14 07:15:16;;;;;;;0.20;0.20;;;;;;;;;;5086453;28;20521;-66
2022/03/14 07:17:42;;;;;;;0.10;0.10;;;;;;;;;;5087515;28;20118;-66
2022/03/14 07:20:08;;;;;;;1.15;1.10;;;;;;;;;;5086640;28;20044;-66
2022/03/14 07:22:38;;;;;;;0.10;0.10;;;;;;;;;;5087289;28;20422;-65
2022/03/14 07:25:06;;;;;;;0.10;0.10;;;;;;;;;;5087088;28;20138;-66
2022/03/14 07:27:31;;;;;;;0.10;0.10;;;;;;;;;;5069101;28;20036;-66
2022/03/14 07:29:57;;;;;;;0.10;0.10;;;;;;;;;;5068392;28;20035;-66
2022/03/14 07:32:22;;;;;;;3.45;1.30;;;;;;;;;;5086640;28;20051;-67
2022/03/14 07:34:48;;;;;;;0.50;0.50;;;;;;;;;;5068948;28;20043;-65
2022/03/14 07:37:13;;;;;;;0.20;0.20;;;;;;;;;;5086969;28;20047;-66
2022/03/14 07:39:39;;;;;;;0.17;0.17;;;;;;;;;;5087118;28;20043;-66
2022/03/14 07:42:05;;;;;;;0.20;0.20;;;;;;;;;;5086930;28;20040;-66
2022/03/14 07:44:35;;;;;;;0.20;0.20;;;;;;;;;;5086747;28;20336;-66
2022/03/14 07:47:03;;;;;;;0.15;0.15;;;;;;;;;;5087267;28;20035;-66
2022/03/14 07:49:29;;;;;;;0.20;0.20;;;;;;;;;;5086975;28;20035;-65
2022/03/14 07:51:54;;;;;;;0.20;0.20;;;;;;;;;;5086816;28;20044;-66
2022/03/14 07:54:24;;;;;;;0.30;0.30;;;;;;;;;;5068447;28;20028;-65
2022/03/14 07:56:49;;;;;;;0.35;0.35;;;;;;;;;;5086283;28;20487;-66
2022/03/14 07:59:14;;;;;;;5.78;5.35;;;;;;;;;;5086197;28;20161;-66
2022/03/14 08:01:40;;;;;;;0.20;0.20;;;;;;;;;;5084174;28;20024;-65
2022/03/14 08:04:05;;;;;;;0.20;0.20;;;;;;;;;;5076955;28;20047;-66
2022/03/14 08:06:41;;;;;;;0.57;0.57;;;;;;;;;;5066715;28;20035;-65
2022/03/14 08:09:07;;;;;;;0.85;0.40;;;;;;;;;;5065898;28;20055;-66
2022/03/14 08:11:33;;;;;;;0.57;0.57;;;;;;;;;;5048143;28;20048;-66
2022/03/14 08:13:58;;;;;;;0.40;0.40;;;;;;;;;;5077724;28;20707;-66
2022/03/14 08:16:24;;;;;;;0.50;0.50;;;;;;;;;;5046826;28;20029;-65
2022/03/14 08:18:51;;;;;;;0.30;0.30;;;;;;;;;;5070081;28;20150;-66
2022/03/14 08:21:16;;;;;;;0.60;0.60;;;;;;;;;;5064115;28;20424;-66
2022/03/14 08:23:42;;;;;;;0.40;0.40;;;;;;;;;;5046615;28;20167;-66
2022/03/14 08:26:07;;;;;;;0.43;0.43;;;;;;;;;;5069591;28;20020;-68
2022/03/14 08:28:34;;;;;;;3.90;3.70;;;;;;;;;;5065635;28;20110;-66
2022/03/14 08:31:00;;;;;;;0.20;0.20;;;;;;;;;;5068801;28;20036;-66
2022/03/14 08:33:29;;;;;;;1.00;0.43;;;;;;;;;;5082615;28;20033;-66
2022/03/14 08:35:59;;;;;;;1.33;1.33;;;;;;;;;;5077093;28;20044;-66
2022/03/14 08:38:25;;;;;;;1.20;1.10;;;;;;;;;;5062681;28;20293;-66
2022/03/14 08:40:50;;;;;;;0.47;0.47;;;;;;;;;;5064206;28;20041;-66
2022/03/14 08:43:16;;;;;;;0.30;0.30;;;;;;;;;;5064877;28;20090;-66
2022/03/14 08:45:43;;;;;;;25.08;23.40;;;;;;;;;;5063638;28;20029;-65
2022/03/14 08:48:10;;;;;;;0.30;0.30;;;;;;;;;;5081145;28;20557;-65
2022/03/14 08:50:37;;;;;;;0.47;0.47;;;;;;;;;;5067263;28;20028;-65
2022/03/14 08:53:03;;;;;;;0.20;0.20;;;;;;;;;;5087222;28;20548;-66
2022/03/14 08:55:28;;;;;;;0.30;0.30;;;;;;;;;;5087009;28;20046;-66
2022/03/14 08:57:54;;;;;;;1.48;1.48;;;;;;;;;;5087688;28;20028;-65
2022/03/14 09:00:21;;;;;;;0.20;0.20;;;;;;;;;;5086869;28;20032;-66
2022/03/14 09:02:46;;;;;;;0.10;0.10;;;;;;;;;;5087459;28;20441;-66
2022/03/14 09:05:13;;;;;;;0.20;0.20;;;;;;;;;;5087740;28;20099;-66
2022/03/14 09:07:38;;;;;;;0.30;0.30;;;;;;;;;;5088187;28;20024;-66
2022/03/14 09:10:06;;;;;;;0.20;0.20;;;;;;;;;;5088348;28;20093;-66
2022/03/14 09:12:35;;;;;;;0.40;0.40;;;;;;;;;;5087786;28;20044;-67
2022/03/14 09:15:04;;;;;;;0.20;0.20;;;;;;;;;;5087761;28;20122;-66
2022/03/14 09:17:29;;;;;;;0.20;0.20;;;;;;;;;;5091801;28;20115;-66
2022/03/14 09:19:55;;;;;;;0.20;0.20;;;;;;;;;;5091178;28;20115;-66
2022/03/14 09:22:22;;;;;;;0.20;0.20;;;;;;;;;;5091255;28;20036;-66
2022/03/14 09:24:48;;;;;;;1.10;1.00;;;;;;;;;;5091217;28;20040;-66
2022/03/14 09:27:13;;;;;;;0.30;0.30;;;;;;;;;;5091334;28;20041;-67
2022/03/14 09:29:39;;;;;;;0.40;0.40;;;;;;;;;;5090659;28;20070;-65
2022/03/14 09:32:04;;;;;;;0.20;0.20;;;;;;;;;;5091176;28;20097;-67
2022/03/14 09:34:31;;;;;;;0.40;0.40;;;;;;;;;;5091313;28;20038;-67
2022/03/14 09:36:57;;;;;;;0.20;0.20;;;;;;;;;;5091371;28;20122;-65
2022/03/14 09:39:22;;;;;;;0.40;0.40;;;;;;;;;;5091152;28;20073;-66
2022/03/14 09:41:50;;;;;;;0.45;0.45;;;;;;;;;;5089275;28;20113;-67
2022/03/14 09:44:17;;;;;;;2.28;1.65;;;;;;;;;;5088085;28;20064;-68
2022/03/14 09:46:44;;;;;;;;;;;;;;;;;;5089405;28;20039;-66
2022/03/14 09:49:12;;;;;;;0.23;0.23;;;;;;;;;;5090704;28;20287;-66
2022/03/14 09:51:39;;;;;;;0.40;0.40;;;;;;;;;;5091086;28;20266;-67
2022/03/14 09:54:09;;;;;;;0.28;0.28;;;;;;;;;;5091016;28;20024;-67
2022/03/14 09:56:34;;;;;;;0.20;0.20;;;;;;;;;;5091403;28;20035;-66
2022/03/14 09:59:00;;;;;;;1.92;1.52;;;;;;;;;;5090769;28;20028;-66
2022/03/14 10:01:27;;;;;;;0.50;0.50;;;;;;;;;;5090671;28;20399;-66
2022/03/14 10:03:54;;;;;;;0.40;0.40;;;;;;;;;;5091051;28;20509;-66
2022/03/14 10:06:20;;;;;;;0.30;0.30;;;;;;;;;;5090303;28;20036;-67
2022/03/14 10:08:45;;;;;;;0.55;0.55;;;;;;;;;;5090588;28;20035;-66
2022/03/14 10:11:10;;;;;;;2.40;2.28;;;;;;;;;;5090667;28;20035;-67
2022/03/14 10:13:37;;;;;;;0.30;0.30;;;;;;;;;;5090462;28;20032;-66
2022/03/14 10:16:04;;;;;;;0.20;0.20;;;;;;;;;;5090713;28;20036;-66
2022/03/14 10:18:34;;;;;;;8.40;2.38;;;;;;;;;;5090299;28;20028;-66
2022/03/14 10:21:12;;;;;;;0.30;0.30;;;;;;;;;;5090404;28;20038;-67
2022/03/14 10:23:43;;;;;;;0.40;0.40;;;;;;;;;;5090514;28;20158;-67
2022/03/14 10:26:12;;;;;;;0.50;0.50;;;;;;;;;;5089973;28;20042;-67
2022/03/14 10:28:38;;;;;;;0.30;0.30;;;;;;;;;;5089315;28;20376;-67
2022/03/14 10:31:05;;;;;;;2.85;0.75;;;;;;;;;;5090090;28;20070;-67
2022/03/14 10:33:34;;;;;;;0.30;0.30;;;;;;;;;;5090157;28;20028;-66
2022/03/14 10:36:00;;;;;;;0.30;0.30;;;;;;;;;;5090262;28;20491;-66
2022/03/14 10:38:26;;;;;;;1.02;0.90;;;;;;;;;;5089825;28;20051;-66
2022/03/14 10:40:52;;;;;;;1.27;0.90;;;;;;;;;;5090115;28;20028;-66
2022/03/14 10:43:31;;;;;;;0.40;0.40;;;;;;;;;;5055077;28;20046;-67
2022/03/14 10:45:57;;;;;;;0.30;0.30;;;;;;;;;;5090677;28;20040;-66
2022/03/14 10:48:33;;;;;;;1.30;0.50;;;;;;;;;;5089790;28;20085;-66
2022/03/14 10:51:03;;;;;;;0.30;0.30;;;;;;;;;;5090063;28;20060;-66
2022/03/14 10:53:29;;;;;;;0.90;0.60;;;;;;;;;;5090095;28;20043;-66
2022/03/14 10:55:58;;;;;;;0.85;0.68;;;;;;;;;;5089750;28;20024;-66
2022/03/14 10:58:27;;;;;;;0.40;0.40;;;;;;;;;;5071700;28;20027;-65
2022/03/14 11:00:52;;;;;;;;;;;;;;;;;;5090004;28;20035;-65
2022/03/14 11:03:45;;;;;;;0.38;0.38;;;;;;;;;;5089684;28;19916;-65
2022/03/14 11:06:13;;;;;;;0.40;0.40;;;;;;;;;;5084981;28;20130;-66
2022/03/14 11:08:42;;;;;;;0.75;0.57;;;;;;;;;;5090102;28;20047;-68
2022/03/14 11:11:19;;;;;;;0.98;0.73;;;;;;;;;;5089726;28;20510;-66
2022/03/14 11:13:44;;;;;;;0.98;0.98;;;;;;;;;;5089622;28;20081;-65
2022/03/14 11:16:34;;;;;;;0.47;0.47;;;;;;;;;;5089545;28;20480;-65
2022/03/14 11:19:00;;;;;;;1.10;0.82;;;;;;;;;;5089670;28;20036;-65
2022/03/14 11:21:26;;;;;;;0.47;0.47;;;;;;;;;;5089383;28;20036;-66
2022/03/14 11:23:52;;;;;;;0.93;0.93;;;;;;;;;;5089329;28;20043;-66
2022/03/14 11:26:20;;;;;;;0.35;0.35;;;;;;;;;;5089289;28;20036;-66
2022/03/14 11:28:47;;;;;;;0.30;0.30;;;;;;;;;;5089462;28;20039;-67
2022/03/14 11:31:12;;;;;;;0.65;0.65;;;;;;;;;;5089760;28;20531;-67
2022/03/14 11:33:38;;;;;;;0.35;0.35;;;;;;;;;;5089482;28;20146;-66
2022/03/14 11:36:04;;;;;;;2.30;1.40;;;;;;;;;;5089106;28;20529;-66
2022/03/14 11:38:33;;;;;;;0.30;0.30;;;;;;;;;;5088936;28;20101;-66
2022/03/14 11:40:59;;;;;;;0.20;0.20;;;;;;;;;;5089743;28;20081;-66
2022/03/14 11:43:25;;;;;;;0.73;0.73;;;;;;;;;;5088953;28;20476;-67
2022/03/14 11:45:51;;;;;;;1.15;1.05;;;;;;;;;;5089483;28;20046;-66
2022/03/14 11:48:17;;;;;;;0.45;0.45;;;;;;;;;;5089263;28;20030;-66
2022/03/14 11:51:00;;;;;;;0.30;0.30;;;;;;;;;;5088971;28;20660;-67
2022/03/14 11:53:27;;;;;;;3.60;0.68;;;;;;;;;;5070767;28;20036;-66
2022/03/14 11:55:55;;;;;;;0.73;0.73;;;;;;;;;;5088895;28;20027;-66
2022/03/14 11:58:38;;;;;;;0.30;0.30;;;;;;;;;;5089019;28;20560;-66
2022/03/14 12:01:23;;;;;;;0.20;0.20;;;;;;;;;;5089089;28;20040;-66
2022/03/14 12:03:49;;;;;;;0.57;0.57;;;;;;;;;;5089168;28;20047;-65
2022/03/14 12:06:16;;;;;;;1.08;0.70;;;;;;;;;;5070461;28;20036;-65
2022/03/14 12:08:45;;;;;;;0.63;0.50;;;;;;;;;;5088780;28;20032;-65
2022/03/14 12:11:31;;;;;;;0.30;0.30;;;;;;;;;;5071014;28;20036;-66
2022/03/14 12:13:57;;;;;;;0.30;0.30;;;;;;;;;;5089020;28;20039;-66
2022/03/14 12:16:35;;;;;;;0.30;0.30;;;;;;;;;;5088821;28;20118;-66
2022/03/14 12:19:24;;;;;;;2.38;2.28;;;;;;;;;;5088626;28;20036;-66
2022/03/14 12:21:52;;;;;;;0.40;0.40;;;;;;;;;;5088565;28;20047;-66
2022/03/14 12:24:38;;;;;;;0.30;0.30;;;;;;;;;;5088452;28;20028;-67
2022/03/14 12:27:14;;;;;;;0.35;0.35;;;;;;;;;;5088179;28;20123;-66
2022/03/14 12:29:40;;;;;;;1.05;1.05;;;;;;;;;;5088247;28;20040;-66
2022/03/14 12:32:23;;;;;;;0.30;0.30;;;;;;;;;;5088487;28;20047;-66
2022/03/14 12:34:56;;;;;;;0.75;0.75;;;;;;;;;;5088503;28;20455;-66
2022/03/14 12:37:50;;;;;;;0.70;0.70;;;;;;;;;;5088295;28;20372;-64
2022/03/14 12:40:21;;;;;;;1.02;1.00;;;;;;;;;;5084434;28;20195;-65
2022/03/14 12:42:54;;;;;;;0.35;0.35;;;;;;;;;;5088486;28;20040;-65
2022/03/14 12:45:22;;;;;;;0.50;0.50;;;;;;;;;;5088491;28;20024;-66
2022/03/14 12:47:57;;;;;;;0.47;0.47;;;;;;;;;;5070853;28;20489;-66
2022/03/14 12:50:44;;;;;;;0.30;0.30;;;;;;;;;;5070730;28;20028;-66
2022/03/14 12:53:12;;;;;;;0.30;0.30;;;;;;;;;;5091617;28;20036;-67
2022/03/14 12:55:51;;;;;;;0.52;0.52;;;;;;;;;;5092035;28;20071;-67
2022/03/14 12:58:18;;;;;;;0.67;0.67;;;;;;;;;;5073849;28;20040;-67
2022/03/14 13:00:43;;;;;;;0.30;0.30;;;;;;;;;;5091553;28;20036;-67
2022/03/14 13:03:09;;;;;;;0.30;0.30;;;;;;;;;;5091749;28;20036;-66
2022/03/14 13:05:39;;;;;;;0.30;0.30;;;;;;;;;;5091779;28;20036;-67
2022/03/14 13:08:05;;;;;;;0.40;0.40;;;;;;;;;;5091880;28;20039;-68
2022/03/14 13:10:46;;;;;;;0.30;0.30;;;;;;;;;;5091203;28;20028;-67
2022/03/14 13:13:12;;;;;;;0.30;0.30;;;;;;;;;;5091376;28;20071;-66
2022/03/14 13:15:42;;;;;;;0.73;0.73;;;;;;;;;;5091730;28;20395;-67
2022/03/14 13:18:22;;;;;;;0.30;0.30;;;;;;;;;;5091424;28;20028;-67
2022/03/14 13:20:47;;;;;;;0.30;0.30;;;;;;;;;;5091515;28;20036;-68
2022/03/14 13:23:16;;;;;;;0.65;0.60;;;;;;;;;;5091237;28;20519;-67
2022/03/14 13:25:48;;;;;;;0.30;0.30;;;;;;;;;;5091571;28;20035;-67
2022/03/14 13:28:30;;;;;;;0.60;0.60;;;;;;;;;;5091504;28;20426;-66
2022/03/14 13:30:57;;;;;;;0.30;0.30;;;;;;;;;;5090988;28;20067;-66
2022/03/14 13:33:30;;;;;;;1.05;1.05;;;;;;;;;;5091249;28;20065;-67
2022/03/14 13:35:56;;;;;;;0.40;0.40;;;;;;;;;;5091131;28;20031;-67
2022/03/14 13:38:44;;;;;;;0.38;0.38;;;;;;;;;;5072972;28;20028;-67
2022/03/14 13:41:14;;;;;;;0.22;0.22;;;;;;;;;;5091201;28;20043;-67
2022/03/14 13:43:40;;;;;;;0.30;0.30;;;;;;;;;;5091015;28;20425;-68
2022/03/14 13:46:25;;;;;;;0.30;0.30;;;;;;;;;;5072584;28;20039;-66
2022/03/14 13:48:52;;;;;;;0.45;0.45;;;;;;;;;;5090544;28;20036;-67
2022/03/14 13:51:20;;;;;;;0.93;0.85;;;;;;;;;;5090976;28;20028;-66
2022/03/14 13:53:48;;;;;;;0.75;0.75;;;;;;;;;;5090882;28;20414;-66
2022/03/14 13:56:15;;;;;;;2.23;0.70;;;;;;;;;;5090792;28;20028;-66
2022/03/14 13:58:49;;;;;;;0.30;0.30;;;;;;;;;;5090809;28;20028;-67
2022/03/14 14:01:15;;;;;;;0.20;0.20;;;;;;;;;;5090454;28;20036;-66
2022/03/14 14:03:41;;;;;;;0.40;0.40;;;;;;;;;;5090631;28;20027;-66
2022/03/14 14:06:13;;;;;;;0.30;0.30;;;;;;;;;;5090213;28;20463;-66
2022/03/14 14:08:39;;;;;;;0.30;0.30;;;;;;;;;;5090744;28;20047;-67
2022/03/14 14:11:04;;;;;;;0.40;0.40;;;;;;;;;;5090656;28;20032;-66
2022/03/14 14:13:48;;;;;;;0.40;0.40;;;;;;;;;;5090256;28;20032;-66
2022/03/14 14:16:18;;;;;;;0.40;0.40;;;;;;;;;;5090383;28;20103;-66
2022/03/14 14:18:44;;;;;;;0.60;0.60;;;;;;;;;;5090784;28;20089;-66
2022/03/14 14:21:17;;;;;;;4.22;1.05;;;;;;;;;;5090231;28;20348;-66
2022/03/14 14:23:42;;;;;;;6.45;5.97;;;;;;;;;;5090668;28;20036;-66
2022/03/14 14:26:08;;;;;;;0.40;0.40;;;;;;;;;;5090295;28;20528;-66
2022/03/14 14:28:33;;;;;;;0.30;0.30;;;;;;;;;;5090099;28;20089;-66
2022/03/14 14:31:00;;;;;;;0.40;0.40;;;;;;;;;;5089971;28;20020;-66
2022/03/14 14:33:31;;;;;;;0.35;0.35;;;;;;;;;;5090273;28;20036;-66
2022/03/14 14:35:58;;;;;;;0.40;0.40;;;;;;;;;;5089958;28;20536;-66
2022/03/14 14:38:28;;;;;;;0.57;0.57;;;;;;;;;;5090195;28;20037;-66
2022/03/14 14:40:55;;;;;;;0.25;0.25;;;;;;;;;;5090443;28;20142;-66
2022/03/14 14:43:21;;;;;;;0.30;0.30;;;;;;;;;;5090042;28;20405;-66
2022/03/14 14:45:47;;;;;;;0.40;0.40;;;;;;;;;;5064574;28;20021;-66